createdAt,value
2022-11-30T00:01:25.946Z,41.17
2022-11-30T00:03:55.502Z,42.28
2022-11-30T00:06:25.198Z,46.85
2022-11-30T00:08:56.227Z,41.80
2022-11-30T00:11:25.748Z,37.60
2022-11-30T00:13:54.460Z,40.65
2022-11-30T00:16:23.266Z,43.28
2022-11-30T00:18:52.454Z,43.42
2022-11-30T00:21:21.165Z,43.10
2022-11-30T00:23:50.402Z,41.78
2022-11-30T00:26:22.938Z,38.00
2022-11-30T00:28:51.171Z,37.30
2022-11-30T00:31:19.939Z,43.65
2022-11-30T00:33:48.497Z,44.60
2022-11-30T00:36:18.855Z,46.05
2022-11-30T00:38:47.473Z,40.42
2022-11-30T00:41:16.299Z,41.58
2022-11-30T00:43:46.356Z,46.00
2022-11-30T00:46:15.072Z,37.90
2022-11-30T00:48:43.446Z,42.10
2022-11-30T00:51:12.902Z,39.92
2022-11-30T00:53:41.927Z,42.17
2022-11-30T00:56:11.300Z,38.55
2022-11-30T00:58:40.107Z,39.30
2022-11-30T01:01:10.424Z,42.83
2022-11-30T01:03:39.227Z,39.80
2022-11-30T01:06:09.258Z,36.80
2022-11-30T01:08:37.712Z,43.25
2022-11-30T01:11:08.347Z,39.88
2022-11-30T01:13:36.693Z,39.53
2022-11-30T01:16:12.601Z,36.45
2022-11-30T01:18:41.061Z,40.30
2022-11-30T01:21:10.746Z,42.25
2022-11-30T01:23:39.204Z,40.85
2022-11-30T01:26:08.053Z,35.63
2022-11-30T01:28:36.881Z,36.28
2022-11-30T01:31:07.295Z,35.00
2022-11-30T01:33:37.386Z,43.63
2022-11-30T01:36:07.959Z,41.25
2022-11-30T01:38:39.315Z,36.42
2022-11-30T01:41:10.302Z,39.00
2022-11-30T01:43:40.664Z,41.70
2022-11-30T01:46:30.278Z,39.85
2022-11-30T01:49:04.781Z,37.50
2022-11-30T01:51:37.833Z,44.50
2022-11-30T01:54:09.841Z,37.67
2022-11-30T01:56:41.080Z,35.72
2022-11-30T01:59:10.103Z,40.85
2022-11-30T02:01:38.505Z,34.45
2022-11-30T02:04:12.693Z,39.08
2022-11-30T02:06:41.121Z,41.45
2022-11-30T02:09:09.866Z,38.88
2022-11-30T02:11:38.131Z,40.00
2022-11-30T02:14:18.771Z,37.30
2022-11-30T02:16:57.443Z,36.80
2022-11-30T02:19:49.985Z,39.03
2022-11-30T02:22:34.515Z,42.20
2022-11-30T02:25:11.498Z,44.40
2022-11-30T02:28:00.469Z,38.38
2022-11-30T02:30:35.241Z,47.90
2022-11-30T02:33:10.243Z,41.97
2022-11-30T02:35:42.759Z,39.92
2022-11-30T02:38:12.100Z,40.50
2022-11-30T02:40:40.609Z,44.10
2022-11-30T02:43:09.019Z,38.03
2022-11-30T02:45:45.759Z,38.97
2022-11-30T02:48:18.344Z,40.67
2022-11-30T02:50:51.143Z,46.55
2022-11-30T02:53:20.345Z,47.17
2022-11-30T02:55:48.612Z,39.05
2022-11-30T02:58:18.745Z,41.03
2022-11-30T03:00:48.529Z,41.13
2022-11-30T03:03:16.864Z,42.83
2022-11-30T03:05:45.758Z,43.83
2022-11-30T03:08:13.986Z,41.08
2022-11-30T03:10:42.248Z,42.28
2022-11-30T03:13:10.522Z,41.53
2022-11-30T03:15:38.769Z,43.08
2022-11-30T03:18:08.488Z,38.80
2022-11-30T03:20:36.732Z,47.25
2022-11-30T03:23:05.150Z,47.55
2022-11-30T03:25:33.848Z,43.40
2022-11-30T03:28:02.438Z,42.17
2022-11-30T03:30:31.032Z,47.25
2022-11-30T03:32:59.218Z,44.80
2022-11-30T03:35:28.844Z,49.08
2022-11-30T03:37:57.630Z,40.78
2022-11-30T03:40:25.971Z,41.60
2022-11-30T03:42:54.294Z,44.78
2022-11-30T03:45:22.561Z,43.42
2022-11-30T03:47:50.784Z,44.05
2022-11-30T03:50:19.276Z,46.17
2022-11-30T03:52:49.129Z,40.22
2022-11-30T03:55:17.514Z,39.55
2022-11-30T03:57:45.854Z,41.42
2022-11-30T04:00:15.318Z,39.78
2022-11-30T04:02:45.044Z,40.47
2022-11-30T04:05:13.897Z,43.17
2022-11-30T04:07:42.325Z,35.33
2022-11-30T04:10:15.364Z,41.40
2022-11-30T04:12:43.711Z,42.00
2022-11-30T04:15:12.370Z,41.30
2022-11-30T04:17:40.566Z,39.42
2022-11-30T04:20:09.543Z,37.42
2022-11-30T04:22:37.763Z,38.13
2022-11-30T04:25:06.679Z,40.42
2022-11-30T04:27:36.257Z,38.40
2022-11-30T04:30:04.664Z,37.55
2022-11-30T04:32:32.897Z,39.08
2022-11-30T04:35:01.617Z,40.90
2022-11-30T04:37:29.837Z,40.05
2022-11-30T04:39:58.053Z,43.22
2022-11-30T04:42:26.236Z,43.13
2022-11-30T04:44:55.996Z,41.90
2022-11-30T04:47:24.531Z,36.72
2022-11-30T04:49:52.702Z,39.72
2022-11-30T04:52:20.890Z,41.67
2022-11-30T04:54:49.575Z,37.05
2022-11-30T04:57:18.157Z,38.90
2022-11-30T04:59:46.544Z,38.35
2022-11-30T05:02:16.292Z,41.55
2022-11-30T05:04:44.752Z,38.70
2022-11-30T05:07:13.061Z,36.28
2022-11-30T05:09:41.336Z,39.65
2022-11-30T05:12:09.615Z,36.65
2022-11-30T05:14:38.346Z,39.55
2022-11-30T05:17:06.598Z,35.67
2022-11-30T05:19:36.176Z,38.72
2022-11-30T05:22:04.565Z,38.80
2022-11-30T05:24:32.768Z,36.60
2022-11-30T05:27:01.348Z,40.63
2022-11-30T05:29:29.529Z,35.00
2022-11-30T05:31:57.754Z,38.33
2022-11-30T05:34:26.002Z,39.78
2022-11-30T05:36:55.741Z,44.67
2022-11-30T05:39:23.918Z,39.63
2022-11-30T05:41:52.098Z,38.58
2022-11-30T05:44:20.259Z,40.95
2022-11-30T05:46:48.517Z,45.33
2022-11-30T05:49:16.817Z,44.70
2022-11-30T05:51:45.090Z,46.75
2022-11-30T05:54:14.695Z,44.17
2022-11-30T05:56:42.874Z,46.83
2022-11-30T05:59:11.847Z,46.40
2022-11-30T06:01:40.095Z,46.13
2022-11-30T06:04:09.381Z,42.55
2022-11-30T06:06:37.585Z,42.75
2022-11-30T06:09:05.968Z,40.28
2022-11-30T06:11:35.761Z,42.13
2022-11-30T06:14:04.007Z,40.17
2022-11-30T06:16:32.333Z,39.88
2022-11-30T06:19:00.578Z,34.28
2022-11-30T06:21:28.749Z,39.83
2022-11-30T06:23:59.806Z,36.92
2022-11-30T06:26:28.024Z,38.60
2022-11-30T06:28:57.632Z,41.00
2022-11-30T06:31:25.874Z,39.75
2022-11-30T06:33:57.134Z,45.72
2022-11-30T06:36:25.387Z,45.95
2022-11-30T06:38:53.707Z,46.25
2022-11-30T06:41:21.893Z,52.20
2022-11-30T06:43:50.159Z,43.55
2022-11-30T06:46:20.088Z,45.30
2022-11-30T06:48:50.825Z,42.67
2022-11-30T06:51:19.290Z,43.13
2022-11-30T06:53:47.788Z,46.65
2022-11-30T06:56:16.098Z,48.60
2022-11-30T06:58:44.268Z,56.45
2022-11-30T07:01:15.202Z,50.05
2022-11-30T07:03:45.307Z,51.38
2022-11-30T07:06:15.181Z,51.92
2022-11-30T07:08:44.264Z,45.38
2022-11-30T07:11:13.563Z,46.50
2022-11-30T07:13:41.742Z,49.88
2022-11-30T07:16:12.458Z,52.58
2022-11-30T07:18:40.680Z,52.78
2022-11-30T07:21:11.884Z,53.85
2022-11-30T07:24:02.925Z,61.22
2022-11-30T07:26:31.262Z,59.83
2022-11-30T07:28:59.449Z,45.70
2022-11-30T07:31:29.613Z,51.75
2022-11-30T07:33:59.573Z,52.08
2022-11-30T07:36:30.358Z,48.72
2022-11-30T07:38:58.832Z,45.63
2022-11-30T07:41:27.669Z,47.20
2022-11-30T07:43:55.874Z,43.97
2022-11-30T07:46:24.059Z,44.03
2022-11-30T07:48:52.325Z,41.83
2022-11-30T07:51:22.913Z,53.35
2022-11-30T07:53:52.541Z,49.95
2022-11-30T07:56:21.508Z,56.28
2022-11-30T07:58:50.314Z,52.10
2022-11-30T08:01:21.670Z,45.42
2022-11-30T08:03:50.821Z,48.03
2022-11-30T08:06:21.441Z,47.85
2022-11-30T08:08:51.304Z,49.63
2022-11-30T08:11:23.594Z,45.35
2022-11-30T08:13:51.975Z,41.95
2022-11-30T08:16:21.963Z,37.30
2022-11-30T08:18:50.877Z,42.65
2022-11-30T08:21:20.769Z,37.22
2022-11-30T08:23:50.857Z,37.40
2022-11-30T08:26:22.166Z,39.05
2022-11-30T08:28:52.453Z,38.17
2022-11-30T08:31:23.152Z,40.90
2022-11-30T08:33:51.557Z,41.33
2022-11-30T08:36:21.520Z,40.33
2022-11-30T08:38:50.438Z,43.88
2022-11-30T08:41:22.381Z,42.63
2022-11-30T08:43:51.499Z,40.78
2022-11-30T08:49:21.614Z,42.58
2022-11-30T08:54:42.506Z,38.17
2022-11-30T08:57:12.613Z,40.22
2022-11-30T08:59:40.769Z,34.97
2022-11-30T09:02:10.887Z,32.83
2022-11-30T09:04:39.294Z,32.13
2022-11-30T09:07:07.508Z,31.55
2022-11-30T09:09:35.645Z,33.00
2022-11-30T09:12:03.906Z,31.23
2022-11-30T09:14:33.983Z,34.03
2022-11-30T09:17:02.235Z,31.13
2022-11-30T09:19:30.614Z,28.40
2022-11-30T09:21:58.931Z,32.90
2022-11-30T09:24:27.141Z,32.72
2022-11-30T09:26:57.318Z,23.98
2022-11-30T09:29:25.516Z,26.15
2022-11-30T09:31:55.134Z,28.05
2022-11-30T09:34:23.535Z,26.08
2022-11-30T09:36:51.750Z,26.60
2022-11-30T09:39:20.329Z,26.17
2022-11-30T09:42:08.521Z,26.20
2022-11-30T09:44:45.305Z,27.17
2022-11-30T09:47:34.094Z,24.52
2022-11-30T09:50:05.973Z,29.85
2022-11-30T09:52:37.375Z,29.55
2022-11-30T09:55:10.620Z,34.63
2022-11-30T09:57:47.033Z,28.33
2022-11-30T10:00:19.517Z,31.23
2022-11-30T10:02:50.718Z,32.40
2022-11-30T10:05:21.741Z,31.05
2022-11-30T10:08:09.276Z,34.55
2022-11-30T10:10:42.074Z,27.60
2022-11-30T10:13:41.285Z,24.33
2022-11-30T10:16:20.753Z,27.85
2022-11-30T10:18:57.262Z,28.23
2022-11-30T10:21:42.549Z,27.20
2022-11-30T10:24:34.780Z,26.20
2022-11-30T10:27:14.006Z,29.05
2022-11-30T10:29:44.021Z,28.75
2022-11-30T10:32:19.415Z,28.02
2022-11-30T10:34:53.022Z,32.45
2022-11-30T10:37:24.011Z,28.50
2022-11-30T10:40:00.122Z,22.80
2022-11-30T10:42:33.506Z,24.38
2022-11-30T10:45:04.555Z,23.10
2022-11-30T10:47:37.227Z,23.40
2022-11-30T10:50:08.624Z,28.83
2022-11-30T10:52:43.580Z,25.48
2022-11-30T10:55:16.003Z,28.60
2022-11-30T10:57:45.180Z,29.60
2022-11-30T11:00:17.527Z,31.15
2022-11-30T11:02:48.091Z,29.23
2022-11-30T11:05:21.704Z,27.83
2022-11-30T11:08:05.940Z,29.35
2022-11-30T11:10:37.593Z,31.83
2022-11-30T11:13:06.662Z,31.40
2022-11-30T11:15:36.486Z,30.08
2022-11-30T11:18:23.651Z,37.15
2022-11-30T11:21:05.877Z,32.35
2022-11-30T11:23:39.599Z,29.50
2022-11-30T11:26:09.490Z,34.10
2022-11-30T11:28:39.422Z,31.92
2022-11-30T11:31:19.597Z,33.08
2022-11-30T11:33:53.799Z,24.05
2022-11-30T11:36:29.540Z,19.40
2022-11-30T11:38:58.229Z,19.55
2022-11-30T11:41:31.417Z,18.25
2022-11-30T11:44:08.684Z,18.80
2022-11-30T11:46:39.572Z,18.58
2022-11-30T11:49:19.601Z,18.45
2022-11-30T11:52:00.270Z,14.32
2022-11-30T11:54:34.260Z,13.45
2022-11-30T11:57:03.158Z,17.55
2022-11-30T11:59:42.562Z,13.20
2022-11-30T12:02:24.979Z,13.45
2022-11-30T12:04:55.258Z,14.63
2022-11-30T12:07:34.174Z,11.40
2022-11-30T12:10:50.081Z,10.82
2022-11-30T12:13:14.033Z,8.57
2022-11-30T12:15:58.664Z,8.80
2022-11-30T12:18:35.129Z,10.48
2022-11-30T12:21:11.206Z,11.43
2022-11-30T12:24:20.236Z,8.25
2022-11-30T12:26:54.997Z,11.55
2022-11-30T12:29:26.276Z,10.32
2022-11-30T12:32:07.295Z,13.88
2022-11-30T12:34:53.583Z,13.82
2022-11-30T12:37:30.425Z,12.50
2022-11-30T12:40:10.653Z,10.18
2022-11-30T12:42:47.424Z,9.10
2022-11-30T12:45:24.426Z,10.98
2022-11-30T12:48:00.048Z,11.30
2022-11-30T12:50:43.749Z,11.90
2022-11-30T12:53:21.687Z,10.38
2022-11-30T12:56:01.474Z,11.35
2022-11-30T12:58:39.547Z,11.65
2022-11-30T13:01:20.352Z,50.13
2022-11-30T13:04:02.380Z,56.20
2022-11-30T13:06:34.246Z,58.28
2022-11-30T13:09:09.970Z,65.03
2022-11-30T13:11:41.230Z,69.88
2022-11-30T13:14:18.257Z,74.63
2022-11-30T13:16:48.356Z,76.68
2022-11-30T13:19:45.185Z,77.05
2022-11-30T13:22:26.398Z,76.38
2022-11-30T13:25:02.039Z,81.95
2022-11-30T13:27:39.168Z,83.57
2022-11-30T13:30:35.763Z,88.35
2022-11-30T13:33:51.951Z,97.18
2022-11-30T13:36:50.534Z,92.97
2022-11-30T13:39:51.718Z,92.85
2022-11-30T13:42:57.720Z,94.00
2022-11-30T13:45:39.538Z,101.63
2022-11-30T13:48:42.364Z,101.53
2022-11-30T13:52:20.042Z,97.00
2022-11-30T13:54:50.788Z,108.32
2022-11-30T13:57:55.645Z,98.55
2022-11-30T14:01:27.275Z,104.25
2022-11-30T14:04:58.963Z,103.13
2022-11-30T14:07:43.130Z,96.28
2022-11-30T14:10:51.209Z,91.72
2022-11-30T14:13:50.879Z,99.40
2022-11-30T14:16:28.061Z,101.72
2022-11-30T14:18:58.264Z,99.15
2022-11-30T14:21:54.335Z,93.20
2022-11-30T14:24:30.791Z,98.68
2022-11-30T14:27:00.320Z,108.05
2022-11-30T14:29:40.630Z,102.93
2022-11-30T14:32:25.510Z,103.40
2022-11-30T14:35:20.040Z,108.10
2022-11-30T14:38:21.707Z,110.22
2022-11-30T14:41:35.790Z,101.30
2022-11-30T14:44:44.264Z,102.57
2022-11-30T14:47:25.059Z,104.53
2022-11-30T14:50:09.386Z,104.63
2022-11-30T14:52:53.027Z,103.25
2022-11-30T14:55:38.486Z,110.00
2022-11-30T14:58:23.161Z,112.50
2022-11-30T15:01:03.134Z,120.70
2022-11-30T15:03:41.904Z,123.10
2022-11-30T15:06:24.653Z,130.75
2022-11-30T15:08:58.797Z,125.30
2022-11-30T15:11:31.085Z,138.90
2022-11-30T15:14:11.087Z,120.43
2022-11-30T15:16:56.217Z,125.20
2022-11-30T15:19:31.102Z,129.38
2022-11-30T15:22:06.448Z,122.95
2022-11-30T15:24:47.809Z,133.70
2022-11-30T15:27:49.138Z,127.85
2022-11-30T15:30:31.934Z,129.35
2022-11-30T15:33:07.844Z,129.45
2022-11-30T15:36:15.835Z,155.90
2022-11-30T15:39:03.439Z,132.55
2022-11-30T15:41:41.191Z,137.25
2022-11-30T15:44:28.051Z,138.77
2022-11-30T15:47:16.890Z,139.45
2022-11-30T15:50:43.462Z,137.82
2022-11-30T15:53:47.615Z,132.60
2022-11-30T15:56:28.522Z,141.05
2022-11-30T15:59:24.505Z,132.60
2022-11-30T16:02:17.494Z,132.25
2022-11-30T16:05:41.195Z,127.28
2022-11-30T16:08:37.662Z,145.73
2022-11-30T16:11:14.440Z,141.50
2022-11-30T16:13:52.050Z,140.48
2022-11-30T16:16:54.637Z,122.18
2022-11-30T16:19:56.242Z,132.88
2022-11-30T16:22:37.498Z,134.02
2022-11-30T16:25:23.896Z,137.15
2022-11-30T16:28:12.803Z,145.52
2022-11-30T16:31:05.178Z,130.52
2022-11-30T16:33:34.262Z,140.98
2022-11-30T16:36:06.713Z,141.02
2022-11-30T16:38:37.594Z,130.82
2022-11-30T16:41:36.353Z,133.60
2022-11-30T16:44:14.990Z,125.85
2022-11-30T16:46:49.721Z,129.15
2022-11-30T16:49:18.514Z,128.13
2022-11-30T16:51:57.513Z,122.60
2022-11-30T16:54:33.929Z,123.55
2022-11-30T16:57:11.272Z,131.95
2022-11-30T16:59:54.553Z,145.55
2022-11-30T17:02:39.843Z,128.50
2022-11-30T17:05:32.753Z,121.35
2022-11-30T17:08:28.959Z,133.65
2022-11-30T17:11:08.707Z,109.65
2022-11-30T17:13:39.184Z,114.82
2022-11-30T17:16:15.037Z,124.78
2022-11-30T17:19:05.985Z,124.97
2022-11-30T17:21:47.298Z,127.22
2022-11-30T17:24:39.581Z,142.70
2022-11-30T17:27:23.267Z,115.90
2022-11-30T17:36:26.185Z,122.18
2022-11-30T17:39:09.442Z,132.80
2022-11-30T17:41:44.666Z,113.82
2022-11-30T17:44:13.910Z,146.07
2022-11-30T17:47:07.482Z,115.78
2022-11-30T17:49:54.144Z,176.85
2022-11-30T17:52:45.714Z,173.15
2022-11-30T17:55:24.809Z,183.90
2022-11-30T17:57:59.526Z,232.05
2022-11-30T18:00:28.233Z,251.57
2022-11-30T18:02:57.995Z,159.88
2022-11-30T18:05:26.423Z,148.27
2022-11-30T18:07:54.800Z,241.10
2022-11-30T18:10:26.730Z,167.48
2022-11-30T18:12:55.054Z,251.07
2022-11-30T18:15:24.800Z,230.15
2022-11-30T18:17:55.583Z,246.98
2022-11-30T18:20:25.514Z,184.75
2022-11-30T18:22:54.777Z,135.75
2022-11-30T18:25:24.053Z,176.30
2022-11-30T18:27:54.100Z,149.77
2022-11-30T18:30:25.560Z,121.45
2022-11-30T18:32:53.981Z,139.02
2022-11-30T18:35:22.400Z,131.00
2022-11-30T18:37:52.082Z,142.98
2022-11-30T18:40:20.778Z,195.02
2022-11-30T18:42:49.620Z,174.50
2022-11-30T18:45:20.866Z,206.55
2022-11-30T18:47:49.105Z,211.82
2022-11-30T18:50:17.635Z,163.23
2022-11-30T18:52:45.958Z,170.65
2022-11-30T18:55:19.803Z,123.63
2022-11-30T18:57:48.152Z,163.00
2022-11-30T19:00:20.674Z,305.13
2022-11-30T19:02:55.363Z,292.35
2022-11-30T19:05:32.822Z,253.05
2022-11-30T19:08:09.031Z,183.00
2022-11-30T19:10:40.886Z,328.40
2022-11-30T19:13:09.183Z,275.15
2022-11-30T19:15:41.996Z,131.18
2022-11-30T19:18:12.267Z,187.95
2022-11-30T19:20:41.538Z,334.75
2022-11-30T19:23:10.484Z,366.95
2022-11-30T19:25:49.198Z,326.45
2022-11-30T19:28:20.479Z,293.85
2022-11-30T19:30:49.807Z,325.50
2022-11-30T19:33:18.201Z,308.42
2022-11-30T19:35:55.343Z,281.50
2022-11-30T19:38:26.763Z,186.00
2022-11-30T19:40:59.449Z,227.82
2022-11-30T19:43:31.097Z,399.42
2022-11-30T19:46:05.827Z,309.05
2022-11-30T19:48:34.614Z,291.90
2022-11-30T19:51:06.932Z,197.40
2022-11-30T19:53:35.910Z,171.05
2022-11-30T19:56:11.095Z,320.38
2022-11-30T19:58:39.719Z,241.43
2022-11-30T20:01:12.626Z,288.20
2022-11-30T20:03:49.662Z,272.58
2022-11-30T20:06:25.849Z,190.43
2022-11-30T20:09:02.105Z,183.88
2022-11-30T20:11:47.971Z,279.58
2022-11-30T20:14:24.461Z,199.20
2022-11-30T20:17:05.551Z,331.15
2022-11-30T20:19:34.413Z,160.05
2022-11-30T20:22:05.051Z,295.38
2022-11-30T20:24:33.832Z,170.85
2022-11-30T20:27:04.740Z,148.48
2022-11-30T20:29:33.160Z,218.85
2022-11-30T20:32:04.816Z,149.73
2022-11-30T20:34:37.596Z,192.32
2022-11-30T20:37:08.091Z,231.73
2022-11-30T20:39:38.866Z,170.63
2022-11-30T20:42:12.417Z,218.77
2022-11-30T20:45:11.220Z,165.70
2022-11-30T20:47:39.467Z,196.07
2022-11-30T20:50:08.689Z,226.18
2022-11-30T20:52:36.844Z,275.15
2022-11-30T20:55:05.193Z,221.65
2022-11-30T20:57:34.798Z,231.13
2022-11-30T21:00:11.631Z,263.42
2022-11-30T21:02:41.337Z,278.95
2022-11-30T21:05:09.882Z,264.60
2022-11-30T21:07:38.046Z,318.75
2022-11-30T21:10:06.994Z,342.70
2022-11-30T21:12:36.547Z,259.35
2022-11-30T21:15:05.581Z,167.93
2022-11-30T21:17:34.069Z,599.05
2022-11-30T21:20:02.299Z,421.48
2022-11-30T21:22:33.565Z,360.60
2022-11-30T21:25:07.109Z,288.42
2022-11-30T21:27:36.668Z,300.08
2022-11-30T21:30:07.779Z,288.05
2022-11-30T21:32:36.144Z,303.83
2022-11-30T21:35:04.504Z,470.10
2022-11-30T21:37:32.737Z,283.73
2022-11-30T21:40:00.884Z,417.77
2022-11-30T21:42:29.081Z,339.70
2022-11-30T21:44:58.999Z,349.73
2022-11-30T21:47:34.144Z,356.92
2022-11-30T21:50:02.335Z,458.50
2022-11-30T21:52:30.478Z,324.58
2022-11-30T21:54:58.700Z,359.65
2022-11-30T21:57:26.892Z,328.40
2022-11-30T21:59:55.004Z,406.15
2022-11-30T22:02:24.537Z,262.02
2022-11-30T22:04:53.212Z,260.13
2022-11-30T22:07:31.415Z,418.73
2022-11-30T22:09:59.792Z,420.45
2022-11-30T22:12:27.988Z,418.98
2022-11-30T22:14:56.205Z,325.48
2022-11-30T22:17:28.750Z,291.58
2022-11-30T22:19:56.883Z,247.98
2022-11-30T22:22:25.868Z,291.35
2022-11-30T22:24:55.703Z,258.20
2022-11-30T22:27:23.886Z,243.88
2022-11-30T22:29:54.938Z,206.70
2022-11-30T22:32:23.089Z,221.45
2022-11-30T22:34:52.622Z,253.70
2022-11-30T22:37:20.763Z,269.10
2022-11-30T22:39:49.120Z,208.65
2022-11-30T22:42:17.448Z,174.43
2022-11-30T22:44:45.644Z,206.38
2022-11-30T22:47:14.957Z,185.73
2022-11-30T22:49:43.113Z,269.92
2022-11-30T22:52:12.707Z,309.35
2022-11-30T22:54:40.878Z,299.65
2022-11-30T22:57:09.089Z,268.15
2022-11-30T22:59:37.236Z,267.85
2022-11-30T23:02:05.365Z,215.80
2022-11-30T23:04:33.557Z,152.10
2022-11-30T23:07:01.858Z,153.07
2022-11-30T23:09:31.376Z,176.68
2022-11-30T23:11:59.522Z,168.57
2022-11-30T23:14:27.681Z,178.45
2022-11-30T23:16:55.793Z,177.57
2022-11-30T23:19:24.791Z,196.75
2022-11-30T23:21:53.508Z,182.55
2022-11-30T23:24:22.041Z,172.50
2022-11-30T23:26:51.714Z,178.77
2022-11-30T23:29:20.160Z,136.85
2022-11-30T23:31:48.830Z,226.05
2022-11-30T23:34:19.314Z,187.23
2022-11-30T23:36:48.801Z,235.75
2022-11-30T23:39:19.712Z,234.95
2022-11-30T23:41:48.058Z,134.88
2022-11-30T23:44:17.762Z,263.30
2022-11-30T23:46:46.159Z,173.13
2022-11-30T23:49:15.124Z,300.15
2022-11-30T23:51:43.656Z,432.30
2022-11-30T23:54:11.868Z,272.60
2022-11-30T23:56:40.032Z,211.48
2022-11-30T23:59:08.225Z,232.18
